createdAt,value
2019-02-26T00:00:50.154Z,71.10
2019-02-26T00:02:56.322Z,71.30
2019-02-26T00:04:58.633Z,71.50
2019-02-26T00:07:03.374Z,71.30
2019-02-26T00:09:09.332Z,71.80
2019-02-26T00:11:13.967Z,71.00
2019-02-26T00:13:18.337Z,70.70
2019-02-26T00:15:22.677Z,71.00
2019-02-26T00:17:27.014Z,71.50
2019-02-26T00:19:31.405Z,72.30
2019-02-26T00:21:35.746Z,72.90
2019-02-26T00:23:41.639Z,73.00
2019-02-26T00:25:44.538Z,72.80
2019-02-26T00:27:49.639Z,73.10
2019-02-26T00:29:55.132Z,73.20
2019-02-26T00:31:57.867Z,74.30
2019-02-26T00:34:02.239Z,73.70
2019-02-26T00:36:07.319Z,73.70
2019-02-26T00:38:11.673Z,73.70
2019-02-26T00:40:19.045Z,73.20
2019-02-26T00:42:23.639Z,73.10
2019-02-26T00:44:25.244Z,73.10
2019-02-26T00:46:30.276Z,72.80
2019-02-26T00:48:35.901Z,72.70
2019-02-26T00:50:39.802Z,72.60
2019-02-26T00:52:42.704Z,72.50
2019-02-26T00:54:47.107Z,72.10
2019-02-26T00:56:51.425Z,71.90
2019-02-26T00:58:55.771Z,72.20
2019-02-26T01:01:00.157Z,72.20
2019-02-26T01:03:06.086Z,72.20
2019-02-26T01:05:10.792Z,72.30
2019-02-26T01:07:13.439Z,72.60
2019-02-26T01:09:17.861Z,72.50
2019-02-26T01:11:23.833Z,72.50
2019-02-26T01:13:28.458Z,72.50
2019-02-26T01:15:31.057Z,72.60
2019-02-26T01:17:35.745Z,72.50
2019-02-26T01:19:40.727Z,72.70
2019-02-26T01:21:44.289Z,73.20
2019-02-26T01:23:48.670Z,73.10
2019-02-26T01:25:54.668Z,73.70
2019-02-26T01:27:58.579Z,74.00
2019-02-26T01:30:03.432Z,73.90
2019-02-26T01:32:08.885Z,73.80
2019-02-26T01:34:12.002Z,74.00
2019-02-26T01:36:16.228Z,75.00
2019-02-26T01:38:21.335Z,74.30
2019-02-26T01:40:25.745Z,74.00
2019-02-26T01:42:29.852Z,73.90
2019-02-26T01:44:35.096Z,74.00
2019-02-26T01:46:38.821Z,73.60
2019-02-26T01:48:41.489Z,73.20
2019-02-26T01:50:45.877Z,73.00
2019-02-26T01:52:51.870Z,72.90
2019-02-26T01:54:55.836Z,72.30
2019-02-26T01:56:59.001Z,72.20
2019-02-26T01:59:03.373Z,72.40
2019-02-26T02:01:09.988Z,73.00
2019-02-26T02:03:12.191Z,73.10
2019-02-26T02:05:16.635Z,73.20
2019-02-26T02:07:21.927Z,73.40
2019-02-26T02:09:25.572Z,73.70
2019-02-26T02:11:31.208Z,74.00
2019-02-26T02:13:35.774Z,74.20
2019-02-26T02:15:40.082Z,74.70
2019-02-26T02:17:43.241Z,75.30
2019-02-26T02:19:47.605Z,75.60
2019-02-26T02:21:53.793Z,75.30
2019-02-26T02:23:56.386Z,75.20
2019-02-26T02:26:04.083Z,76.20
2019-02-26T02:28:05.170Z,76.30
2019-02-26T02:30:18.564Z,76.00
2019-02-26T02:32:16.656Z,75.90
2019-02-26T02:34:23.253Z,75.50
2019-02-26T02:36:26.397Z,75.70
2019-02-26T02:38:29.923Z,75.90
2019-02-26T02:40:34.340Z,75.90
2019-02-26T02:42:40.774Z,75.90
2019-02-26T02:44:44.832Z,75.60
2019-02-26T02:46:47.486Z,76.20
2019-02-26T02:48:51.928Z,76.20
2019-02-26T02:50:56.315Z,76.10
2019-02-26T02:53:02.225Z,76.30
2019-02-26T02:55:06.982Z,76.20
2019-02-26T02:57:10.061Z,76.00
2019-02-26T02:59:14.648Z,76.20
2019-02-26T03:01:21.266Z,75.80
2019-02-26T03:03:23.009Z,75.70
2019-02-26T03:05:31.301Z,75.70
2019-02-26T03:07:31.756Z,75.20
2019-02-26T03:09:37.734Z,74.80
2019-02-26T03:11:41.992Z,74.50
2019-02-26T03:13:45.868Z,74.10
2019-02-26T03:15:50.146Z,73.90
2019-02-26T03:17:53.633Z,74.00
2019-02-26T03:19:58.603Z,73.60
2019-02-26T03:22:02.365Z,73.90
2019-02-26T03:24:08.649Z,74.00
2019-02-26T03:26:14.778Z,74.10
2019-02-26T03:28:15.519Z,74.60
2019-02-26T03:30:27.498Z,74.80
2019-02-26T03:32:24.348Z,75.40
2019-02-26T03:34:28.731Z,75.70
2019-02-26T03:36:34.161Z,76.10
2019-02-26T03:38:37.466Z,76.50
2019-02-26T03:40:41.841Z,76.90
2019-02-26T03:42:46.397Z,77.00
2019-02-26T03:44:50.668Z,77.50
2019-02-26T03:46:54.993Z,77.60
2019-02-26T03:49:02.514Z,77.20
2019-02-26T03:51:03.781Z,77.10
2019-02-26T03:53:09.905Z,76.90
2019-02-26T03:55:15.414Z,77.40
2019-02-26T03:57:19.311Z,76.40
2019-02-26T03:59:21.636Z,76.30
2019-02-26T04:01:26.089Z,76.20
2019-02-26T04:03:32.138Z,76.30
2019-02-26T04:05:34.923Z,76.30
2019-02-26T04:07:39.375Z,76.40
2019-02-26T04:09:44.413Z,76.50
2019-02-26T04:11:50.340Z,76.30
2019-02-26T04:13:56.126Z,76.30
2019-02-26T04:15:59.092Z,76.40
2019-02-26T04:18:01.543Z,76.90
2019-02-26T04:20:06.722Z,76.00
2019-02-26T04:22:23.353Z,75.70
2019-02-26T04:24:29.047Z,75.80
2019-02-26T04:26:51.725Z,76.00
2019-02-26T04:29:05.208Z,76.70
2019-02-26T04:33:27.834Z,76.60
2019-02-26T04:35:44.796Z,76.70
2019-02-26T04:38:29.098Z,76.70
2019-02-26T04:40:41.010Z,76.60
2019-02-26T04:42:55.602Z,76.80
2019-02-26T04:45:42.053Z,77.80
2019-02-26T04:47:48.818Z,77.50
2019-02-26T04:49:50.807Z,77.10
2019-02-26T04:51:55.151Z,76.70
2019-02-26T04:54:02.034Z,76.60
2019-02-26T04:56:06.318Z,76.60
2019-02-26T04:58:08.754Z,76.20
2019-02-26T05:00:12.721Z,75.60
2019-02-26T05:02:17.195Z,75.10
2019-02-26T05:04:21.630Z,75.40
2019-02-26T05:06:26.039Z,75.90
2019-02-26T05:08:32.080Z,75.80
2019-02-26T05:10:34.835Z,76.40
2019-02-26T05:12:40.179Z,76.40
2019-02-26T05:14:43.623Z,76.50
2019-02-26T05:16:47.999Z,77.10
2019-02-26T05:18:55.017Z,77.70
2019-02-26T05:20:56.790Z,78.70
2019-02-26T05:23:02.980Z,78.30
2019-02-26T05:25:07.431Z,77.80
2019-02-26T05:27:15.642Z,78.90
2019-02-26T05:29:19.270Z,79.20
2019-02-26T05:31:23.689Z,79.60
2019-02-26T05:33:30.419Z,79.50
2019-02-26T05:35:32.466Z,79.20
2019-02-26T05:37:40.220Z,79.10
2019-02-26T05:39:43.332Z,78.90
2019-02-26T05:41:45.657Z,79.10
2019-02-26T05:43:55.331Z,79.00
2019-02-26T05:45:57.417Z,78.60
2019-02-26T05:47:59.066Z,78.40
2019-02-26T05:50:06.239Z,77.80
2019-02-26T05:52:07.507Z,77.70
2019-02-26T05:54:14.785Z,77.70
2019-02-26T05:56:17.154Z,77.60
2019-02-26T05:58:21.443Z,77.20
2019-02-26T06:00:28.944Z,77.00
2019-02-26T06:02:29.561Z,76.80
2019-02-26T06:04:35.180Z,76.60
2019-02-26T06:06:38.407Z,76.20
2019-02-26T06:08:42.829Z,75.90
2019-02-26T06:10:47.227Z,75.90
2019-02-26T06:12:51.609Z,76.30
2019-02-26T06:15:00.255Z,77.00
2019-02-26T06:17:00.302Z,76.90
2019-02-26T06:19:06.146Z,76.90
2019-02-26T06:21:09.184Z,77.00
2019-02-26T06:23:13.571Z,76.70
2019-02-26T06:25:23.295Z,76.70
2019-02-26T06:27:24.688Z,77.00
2019-02-26T06:29:27.409Z,77.70
2019-02-26T06:31:31.136Z,77.70
2019-02-26T06:33:36.607Z,78.10
2019-02-26T06:35:40.639Z,78.00
2019-02-26T06:37:44.258Z,78.20
2019-02-26T06:39:50.568Z,78.40
2019-02-26T06:41:52.944Z,78.80
2019-02-26T06:43:57.295Z,79.20
2019-02-26T06:46:02.674Z,79.70
2019-02-26T06:48:06.091Z,79.60
2019-02-26T06:50:12.980Z,79.80
2019-02-26T06:52:16.265Z,79.30
2019-02-26T06:54:22.144Z,79.30
2019-02-26T06:56:23.950Z,79.60
2019-02-26T06:58:28.953Z,79.60
2019-02-26T07:00:33.333Z,79.10
2019-02-26T07:02:37.696Z,79.30
2019-02-26T07:04:42.029Z,79.20
2019-02-26T07:06:46.393Z,78.90
2019-02-26T07:08:51.090Z,78.90
2019-02-26T07:10:55.117Z,78.90
2019-02-26T07:12:59.502Z,78.80
2019-02-26T07:15:03.995Z,78.70
2019-02-26T07:17:08.358Z,78.70
2019-02-26T07:19:14.492Z,78.40
2019-02-26T07:21:17.125Z,78.50
2019-02-26T07:23:21.485Z,78.80
2019-02-26T07:25:25.866Z,79.90
2019-02-26T07:27:32.004Z,79.10
2019-02-26T07:29:37.539Z,79.50
2019-02-26T07:31:39.014Z,79.40
2019-02-26T07:33:43.389Z,79.00
2019-02-26T07:35:47.716Z,78.00
2019-02-26T07:37:52.706Z,77.80
2019-02-26T07:39:56.469Z,77.80
2019-02-26T07:42:00.833Z,79.20
2019-02-26T07:44:09.033Z,78.00
2019-02-26T07:46:11.756Z,78.50
2019-02-26T07:48:18.627Z,79.20
2019-02-26T07:50:18.360Z,78.60
2019-02-26T07:52:24.345Z,79.60
2019-02-26T07:54:28.720Z,79.30
2019-02-26T07:56:32.722Z,80.80
2019-02-26T07:58:36.808Z,80.30
2019-02-26T08:00:42.318Z,81.00
2019-02-26T08:02:44.552Z,82.20
2019-02-26T08:04:48.959Z,82.30
2019-02-26T08:06:54.959Z,82.40
2019-02-26T08:08:57.783Z,82.40
2019-02-26T08:11:02.163Z,83.00
2019-02-26T08:13:08.039Z,83.50
2019-02-26T08:15:15.533Z,82.70
2019-02-26T08:17:17.475Z,82.80
2019-02-26T08:19:21.826Z,82.20
2019-02-26T08:21:27.068Z,81.60
2019-02-26T08:23:30.576Z,81.90
2019-02-26T08:25:34.918Z,80.80
2019-02-26T08:27:39.233Z,81.90
2019-02-26T08:29:43.619Z,81.10
2019-02-26T08:31:49.546Z,80.80
2019-02-26T08:33:52.862Z,81.50
2019-02-26T08:35:57.242Z,81.90
2019-02-26T08:38:05.684Z,81.70
2019-02-26T08:40:09.378Z,81.40
2019-02-26T08:42:12.106Z,81.10
2019-02-26T08:44:16.430Z,80.80
2019-02-26T08:46:20.846Z,80.70
2019-02-26T08:48:26.979Z,80.30
2019-02-26T08:50:32.973Z,81.30
2019-02-26T08:52:33.956Z,81.30
2019-02-26T08:54:38.353Z,82.10
2019-02-26T08:56:42.706Z,82.20
2019-02-26T08:58:47.022Z,81.20
2019-02-26T09:00:51.379Z,81.50
2019-02-26T09:02:56.663Z,81.00
2019-02-26T09:05:01.567Z,80.90
2019-02-26T09:07:04.529Z,81.40
2019-02-26T09:09:09.726Z,81.10
2019-02-26T09:11:14.244Z,81.80
2019-02-26T09:13:18.759Z,81.20
2019-02-26T09:15:23.000Z,80.80
2019-02-26T09:17:29.890Z,80.50
2019-02-26T09:19:35.421Z,80.30
2019-02-26T09:21:39.481Z,80.00
2019-02-26T09:23:42.391Z,80.50
2019-02-26T09:25:51.540Z,80.20
2019-02-26T09:27:51.350Z,80.10
2019-02-26T09:29:56.088Z,79.70
2019-02-26T09:32:00.510Z,80.20
2019-02-26T09:34:04.871Z,80.00
2019-02-26T09:36:12.653Z,79.50
2019-02-26T09:38:15.021Z,79.20
2019-02-26T09:40:20.395Z,78.20
2019-02-26T09:42:23.374Z,77.70
2019-02-26T09:44:29.245Z,78.40
2019-02-26T09:46:33.566Z,78.40
2019-02-26T09:48:38.173Z,78.20
2019-02-26T09:50:41.915Z,77.20
2019-02-26T09:52:45.202Z,76.30
2019-02-26T09:54:51.105Z,75.30
2019-02-26T09:56:53.832Z,75.70
2019-02-26T09:58:58.159Z,75.80
2019-02-26T10:01:02.505Z,75.10
2019-02-26T10:03:08.399Z,74.40
2019-02-26T10:05:13.516Z,75.30
2019-02-26T10:07:15.738Z,74.50
2019-02-26T10:09:20.710Z,74.60
2019-02-26T10:11:26.127Z,75.90
2019-02-26T10:13:28.998Z,75.00
2019-02-26T10:15:34.882Z,74.70
2019-02-26T10:17:40.155Z,74.30
2019-02-26T10:19:43.005Z,72.60
2019-02-26T10:21:46.659Z,72.60
2019-02-26T10:23:52.141Z,72.00
2019-02-26T10:25:57.558Z,72.70
2019-02-26T10:28:05.731Z,71.30
2019-02-26T10:30:08.409Z,72.50
2019-02-26T10:32:11.781Z,72.10
2019-02-26T10:34:15.754Z,71.20
2019-02-26T10:36:19.071Z,71.80
2019-02-26T10:38:24.195Z,69.10
2019-02-26T10:40:35.242Z,69.70
2019-02-26T10:42:39.628Z,69.90
2019-02-26T10:44:36.729Z,70.00
2019-02-26T10:46:42.563Z,68.60
2019-02-26T10:48:46.341Z,66.70
2019-02-26T10:50:51.930Z,67.20
2019-02-26T10:52:57.746Z,65.10
2019-02-26T10:54:58.825Z,64.90
2019-02-26T10:57:07.459Z,64.20
2019-02-26T10:59:09.460Z,65.00
2019-02-26T11:01:13.092Z,64.60
2019-02-26T11:03:19.863Z,62.10
2019-02-26T11:05:26.256Z,63.60
2019-02-26T11:07:27.053Z,63.10
2019-02-26T11:09:31.987Z,61.20
2019-02-26T11:11:37.367Z,60.60
2019-02-26T11:13:42.247Z,59.60
2019-02-26T11:15:43.971Z,62.00
2019-02-26T11:17:50.476Z,62.40
2019-02-26T11:19:53.668Z,62.00
2019-02-26T11:22:00.852Z,62.10
2019-02-26T11:24:04.154Z,60.10
2019-02-26T11:26:10.713Z,58.90
2019-02-26T11:28:12.985Z,60.50
2019-02-26T11:30:20.550Z,60.40
2019-02-26T11:32:22.151Z,59.80
2019-02-26T11:34:28.567Z,58.40
2019-02-26T11:36:32.958Z,58.30
2019-02-26T11:38:36.995Z,57.70
2019-02-26T11:40:39.716Z,57.90
2019-02-26T11:42:44.460Z,57.80
2019-02-26T11:44:48.458Z,59.00
2019-02-26T11:46:54.319Z,60.40
2019-02-26T11:48:57.546Z,60.50
2019-02-26T11:51:01.589Z,60.60
2019-02-26T11:53:09.300Z,61.30
2019-02-26T11:55:11.370Z,60.10
2019-02-26T11:57:17.634Z,60.90
2019-02-26T11:59:20.051Z,60.00
2019-02-26T12:01:24.463Z,58.70
2019-02-26T12:03:32.731Z,54.30
2019-02-26T12:05:35.503Z,55.90
2019-02-26T12:07:37.663Z,56.30
2019-02-26T12:09:43.339Z,56.40
2019-02-26T12:11:46.498Z,56.60
2019-02-26T12:13:53.026Z,54.60
2019-02-26T12:15:55.250Z,56.30
2019-02-26T12:17:59.684Z,56.10
2019-02-26T12:20:04.299Z,52.40
2019-02-26T12:22:08.664Z,52.00
2019-02-26T12:24:13.042Z,53.50
2019-02-26T12:26:19.190Z,55.60
2019-02-26T12:28:21.927Z,56.00
2019-02-26T12:30:26.409Z,55.50
2019-02-26T12:32:30.798Z,55.80
2019-02-26T12:34:44.604Z,55.60
2019-02-26T12:36:48.177Z,55.10
2019-02-26T12:38:53.436Z,55.50
2019-02-26T12:40:54.913Z,51.70
2019-02-26T12:43:01.851Z,51.50
2019-02-26T12:45:06.708Z,53.70
2019-02-26T12:47:08.088Z,54.80
2019-02-26T12:49:14.859Z,54.30
2019-02-26T12:51:25.243Z,54.40
2019-02-26T12:53:27.370Z,54.40
2019-02-26T12:55:34.527Z,53.10
2019-02-26T12:57:36.256Z,53.20
2019-02-26T12:59:40.662Z,54.00
2019-02-26T13:01:46.222Z,52.40
2019-02-26T13:03:53.890Z,53.20
2019-02-26T13:05:53.850Z,53.40
2019-02-26T13:07:58.230Z,53.60
2019-02-26T13:10:03.867Z,53.70
2019-02-26T13:12:07.302Z,53.10
2019-02-26T13:14:11.681Z,51.50
2019-02-26T13:16:16.043Z,51.50
2019-02-26T13:18:20.442Z,52.60
2019-02-26T13:20:24.803Z,51.50
2019-02-26T13:22:29.141Z,51.70
2019-02-26T13:24:33.506Z,52.30
2019-02-26T13:26:39.081Z,51.80
2019-02-26T13:28:46.762Z,50.20
2019-02-26T13:30:46.696Z,48.40
2019-02-26T13:34:56.510Z,46.40
2019-02-26T13:37:00.033Z,48.30
2019-02-26T13:39:05.234Z,43.90
2019-02-26T13:41:28.975Z,44.80
2019-02-26T13:43:14.161Z,48.70
2019-02-26T13:45:20.039Z,48.00
2019-02-26T13:47:25.332Z,47.90
2019-02-26T13:49:29.761Z,48.60
2019-02-26T13:51:34.152Z,48.30
2019-02-26T13:53:38.853Z,47.20
2019-02-26T13:55:43.256Z,48.50
2019-02-26T13:57:47.618Z,47.70
2019-02-26T13:59:52.033Z,46.60
2019-02-26T14:01:56.473Z,48.50
2019-02-26T14:04:00.876Z,48.50
2019-02-26T14:06:05.260Z,49.50
2019-02-26T14:08:09.706Z,48.30
2019-02-26T14:10:15.059Z,47.10
2019-02-26T14:12:19.439Z,48.60
2019-02-26T14:14:23.778Z,48.30
2019-02-26T14:16:32.546Z,49.20
2019-02-26T14:18:32.506Z,49.60
2019-02-26T14:20:36.975Z,49.40
2019-02-26T14:22:41.433Z,49.50
2019-02-26T14:24:45.763Z,51.50
2019-02-26T14:26:50.170Z,47.20
2019-02-26T14:28:54.511Z,45.30
2019-02-26T14:30:58.886Z,48.10
2019-02-26T14:33:03.250Z,48.00
2019-02-26T14:35:08.633Z,43.90
2019-02-26T14:37:13.906Z,45.80
2019-02-26T14:39:18.245Z,42.60
2019-02-26T14:41:22.597Z,45.60
2019-02-26T14:43:27.004Z,46.10
2019-02-26T14:45:31.376Z,45.80
2019-02-26T14:47:35.852Z,46.90
2019-02-26T14:49:40.210Z,44.60
2019-02-26T14:51:44.542Z,47.00
2019-02-26T14:53:49.264Z,44.30
2019-02-26T14:55:53.434Z,45.20
2019-02-26T14:57:57.798Z,44.10
2019-02-26T15:00:02.173Z,46.00
2019-02-26T15:02:06.518Z,42.70
2019-02-26T15:04:10.920Z,45.20
2019-02-26T15:06:15.663Z,44.80
2019-02-26T15:08:19.622Z,43.70
2019-02-26T15:10:24.020Z,43.10
2019-02-26T15:12:28.375Z,41.40
2019-02-26T15:14:32.778Z,40.40
2019-02-26T15:16:37.148Z,39.30
2019-02-26T15:18:41.516Z,40.70
2019-02-26T15:20:45.920Z,41.90
2019-02-26T15:22:50.270Z,39.30
2019-02-26T15:24:54.641Z,40.80
2019-02-26T15:26:59.027Z,39.30
2019-02-26T15:29:03.402Z,36.80
2019-02-26T15:31:07.923Z,39.70
2019-02-26T15:33:12.350Z,37.60
2019-02-26T15:35:16.809Z,37.70
2019-02-26T15:37:21.177Z,38.60
2019-02-26T15:39:25.541Z,37.60
2019-02-26T15:41:29.947Z,38.30
2019-02-26T15:43:34.289Z,39.50
2019-02-26T15:45:38.618Z,39.10
2019-02-26T15:47:43.101Z,40.20
2019-02-26T15:49:47.463Z,38.30
2019-02-26T15:51:51.827Z,37.70
2019-02-26T15:53:56.450Z,38.50
2019-02-26T15:56:00.575Z,36.60
2019-02-26T15:58:06.805Z,36.70
2019-02-26T16:00:11.541Z,35.90
2019-02-26T16:02:15.903Z,35.30
2019-02-26T16:04:20.331Z,37.20
2019-02-26T16:06:24.718Z,35.70
2019-02-26T16:08:34.654Z,36.40
2019-02-26T16:10:33.461Z,36.40
2019-02-26T16:12:37.854Z,37.30
2019-02-26T16:14:42.216Z,36.60
2019-02-26T16:16:46.540Z,38.90
2019-02-26T16:18:50.969Z,38.60
2019-02-26T16:20:55.376Z,39.90
2019-02-26T16:22:59.723Z,40.50
2019-02-26T16:25:07.440Z,41.90
2019-02-26T16:27:08.495Z,42.00
2019-02-26T16:29:12.869Z,40.70
2019-02-26T16:31:17.283Z,42.10
2019-02-26T16:33:21.698Z,41.80
2019-02-26T16:35:26.088Z,41.80
2019-02-26T16:37:30.454Z,42.60
2019-02-26T16:39:34.814Z,42.60
2019-02-26T16:41:39.239Z,42.70
2019-02-26T16:43:43.622Z,43.50
2019-02-26T16:45:48.093Z,42.60
2019-02-26T16:47:52.505Z,43.00
2019-02-26T16:50:02.112Z,43.20
2019-02-26T16:52:01.368Z,43.00
2019-02-26T16:54:07.430Z,43.70
2019-02-26T16:56:10.372Z,43.80
2019-02-26T16:58:14.871Z,43.90
2019-02-26T17:00:20.692Z,44.00
2019-02-26T17:02:27.198Z,44.30
2019-02-26T17:04:30.892Z,44.60
2019-02-26T17:06:33.784Z,44.70
2019-02-26T17:08:38.233Z,45.10
2019-02-26T17:10:42.654Z,45.10
2019-02-26T17:12:50.808Z,44.90
2019-02-26T17:14:55.230Z,44.60
2019-02-26T17:17:01.579Z,45.10
2019-02-26T17:19:04.078Z,45.30
2019-02-26T17:21:08.530Z,45.70
2019-02-26T17:23:14.081Z,46.00
2019-02-26T17:25:17.386Z,46.20
2019-02-26T17:27:21.766Z,46.60
2019-02-26T17:29:26.157Z,47.00
2019-02-26T17:31:30.733Z,46.90
2019-02-26T17:33:35.204Z,46.60
2019-02-26T17:35:39.534Z,46.70
2019-02-26T17:37:43.934Z,46.90
2019-02-26T17:39:48.318Z,47.00
2019-02-26T17:41:52.730Z,47.30
2019-02-26T17:43:59.619Z,47.60
2019-02-26T17:46:01.553Z,48.40
2019-02-26T17:48:06.039Z,48.20
2019-02-26T17:50:13.483Z,48.60
2019-02-26T17:52:17.969Z,48.70
2019-02-26T17:54:24.325Z,49.00
2019-02-26T17:56:28.831Z,49.10
2019-02-26T17:58:33.246Z,49.20
2019-02-26T18:00:39.698Z,49.40
2019-02-26T18:02:44.822Z,49.50
2019-02-26T18:04:49.282Z,49.80
2019-02-26T18:06:53.801Z,50.00
2019-02-26T18:08:58.255Z,50.00
2019-02-26T18:11:02.770Z,50.10
2019-02-26T18:13:09.126Z,50.60
2019-02-26T18:15:16.650Z,50.50
2019-02-26T18:17:18.178Z,50.40
2019-02-26T18:19:22.565Z,50.50
2019-02-26T18:21:26.918Z,50.60
2019-02-26T18:23:31.266Z,51.00
2019-02-26T18:25:35.835Z,51.00
2019-02-26T18:27:40.347Z,51.30
2019-02-26T18:29:44.784Z,51.30
2019-02-26T18:31:49.259Z,51.20
2019-02-26T18:33:53.627Z,51.20
2019-02-26T18:35:59.351Z,51.80
2019-02-26T18:38:02.573Z,52.20
2019-02-26T18:40:07.589Z,52.60
2019-02-26T18:42:11.834Z,51.90
2019-02-26T18:44:17.807Z,51.80
2019-02-26T18:46:20.791Z,52.30
2019-02-26T18:48:25.449Z,52.80
2019-02-26T18:50:29.971Z,53.10
2019-02-26T18:52:34.431Z,53.10
2019-02-26T18:54:38.849Z,53.70
2019-02-26T18:56:43.246Z,53.70
2019-02-26T18:58:49.098Z,53.90
2019-02-26T19:00:52.132Z,54.00
2019-02-26T19:02:56.523Z,54.10
2019-02-26T19:05:01.765Z,54.30
2019-02-26T19:07:06.266Z,54.60
2019-02-26T19:09:12.326Z,55.00
2019-02-26T19:11:16.856Z,55.50
2019-02-26T19:13:21.247Z,55.70
2019-02-26T19:15:25.708Z,56.10
2019-02-26T19:17:30.114Z,56.20
2019-02-26T19:19:34.581Z,56.30
2019-02-26T19:21:39.094Z,56.30
2019-02-26T19:23:43.653Z,56.40
2019-02-26T19:25:48.814Z,56.50
2019-02-26T19:27:53.687Z,56.60
2019-02-26T19:29:57.825Z,56.70
2019-02-26T19:32:02.270Z,56.70
2019-02-26T19:34:06.747Z,56.70
2019-02-26T19:36:13.061Z,56.70
2019-02-26T19:38:15.721Z,56.80
2019-02-26T19:40:21.699Z,56.90
2019-02-26T19:42:26.094Z,57.00
2019-02-26T19:44:30.624Z,56.90
2019-02-26T19:46:35.704Z,57.00
2019-02-26T19:48:40.277Z,57.00
2019-02-26T19:50:47.941Z,57.90
2019-02-26T19:52:56.616Z,58.10
2019-02-26T19:54:53.631Z,58.60
2019-02-26T19:56:58.101Z,58.60
2019-02-26T19:59:03.903Z,58.90
2019-02-26T20:01:08.312Z,58.90
2019-02-26T20:03:12.762Z,59.00
2019-02-26T20:05:17.215Z,59.40
2019-02-26T20:07:21.711Z,59.40
2019-02-26T20:09:26.147Z,59.50
2019-02-26T20:11:30.591Z,59.50
2019-02-26T20:13:35.061Z,59.60
2019-02-26T20:15:39.591Z,59.60
2019-02-26T20:17:44.098Z,60.00
2019-02-26T20:19:48.595Z,60.30
2019-02-26T20:21:53.110Z,60.80
2019-02-26T20:23:57.574Z,61.60
2019-02-26T20:26:01.993Z,61.10
2019-02-26T20:28:07.072Z,61.30
2019-02-26T20:30:14.055Z,61.50
2019-02-26T20:32:18.595Z,61.50
2019-02-26T20:34:23.153Z,61.40
2019-02-26T20:36:29.622Z,61.30
2019-02-26T20:38:35.202Z,61.30
2019-02-26T20:40:38.768Z,61.50
2019-02-26T20:42:43.363Z,61.60
2019-02-26T20:44:47.867Z,61.80
2019-02-26T20:46:52.278Z,62.20
2019-02-26T20:48:56.825Z,62.50
2019-02-26T20:51:01.265Z,62.70
2019-02-26T20:53:06.514Z,63.00
2019-02-26T20:55:12.062Z,63.10
2019-02-26T20:57:16.523Z,63.10
2019-02-26T20:59:22.101Z,63.20
2019-02-26T21:01:26.582Z,63.20
2019-02-26T21:03:53.381Z,63.00
2019-02-26T21:05:57.883Z,63.10
2019-02-26T21:08:18.584Z,63.40
2019-02-26T21:10:23.786Z,63.60
2019-02-26T21:12:28.797Z,63.70
2019-02-26T21:14:32.618Z,63.90
2019-02-26T21:16:37.039Z,64.20
2019-02-26T21:18:41.447Z,64.30
2019-02-26T21:20:45.896Z,64.40
2019-02-26T21:22:54.657Z,64.40
2019-02-26T21:24:55.241Z,64.30
2019-02-26T21:26:59.690Z,64.30
2019-02-26T21:29:06.267Z,64.10
2019-02-26T21:31:08.559Z,64.20
2019-02-26T21:33:13.011Z,64.50
2019-02-26T21:35:20.214Z,64.50
2019-02-26T21:37:21.973Z,64.60
2019-02-26T21:39:26.567Z,64.70
2019-02-26T21:41:31.538Z,64.90
2019-02-26T21:43:36.242Z,65.20
2019-02-26T21:45:40.774Z,65.20
2019-02-26T21:47:45.256Z,65.40
2019-02-26T21:49:49.645Z,65.40
2019-02-26T21:51:55.222Z,65.40
2019-02-26T21:53:58.518Z,65.40
2019-02-26T21:56:02.857Z,65.40
2019-02-26T21:58:07.279Z,65.80
2019-02-26T22:00:13.520Z,66.00
2019-02-26T22:02:18.878Z,66.40
2019-02-26T22:04:23.204Z,66.30
2019-02-26T22:06:27.582Z,66.20
2019-02-26T22:08:32.055Z,66.20
2019-02-26T22:10:36.478Z,66.40
2019-02-26T22:12:40.898Z,66.80
2019-02-26T22:14:45.287Z,67.30
2019-02-26T22:16:51.503Z,67.40
2019-02-26T22:18:54.169Z,67.50
2019-02-26T22:20:58.603Z,67.50
2019-02-26T22:23:03.018Z,68.30
2019-02-26T22:25:09.877Z,67.60
2019-02-26T22:27:12.010Z,67.90
2019-02-26T22:29:16.392Z,67.90
2019-02-26T22:31:20.761Z,67.90
2019-02-26T22:33:25.122Z,68.00
2019-02-26T22:35:30.389Z,67.90
2019-02-26T22:37:34.787Z,67.80
2019-02-26T22:39:39.238Z,67.60
2019-02-26T22:41:43.607Z,67.80
2019-02-26T22:43:48.183Z,67.50
2019-02-26T22:45:52.346Z,67.60
2019-02-26T22:47:56.742Z,67.80
2019-02-26T22:50:03.115Z,67.70
2019-02-26T22:52:05.472Z,68.00
2019-02-26T22:54:10.376Z,68.20
2019-02-26T22:56:15.368Z,68.20
2019-02-26T22:58:18.616Z,67.90
2019-02-26T23:00:35.503Z,68.00
2019-02-26T23:02:40.813Z,68.20
2019-02-26T23:04:44.310Z,68.70
2019-02-26T23:06:48.685Z,68.90
2019-02-26T23:08:53.070Z,69.10
2019-02-26T23:10:58.048Z,69.10
2019-02-26T23:13:01.881Z,69.10
2019-02-26T23:15:06.497Z,69.30
2019-02-26T23:17:11.042Z,69.20
2019-02-26T23:19:15.494Z,69.20
2019-02-26T23:21:20.046Z,69.20
2019-02-26T23:23:24.398Z,69.20
2019-02-26T23:25:28.827Z,68.80
2019-02-26T23:27:33.314Z,68.80
2019-02-26T23:29:39.430Z,69.10
2019-02-26T23:31:43.795Z,69.00
2019-02-26T23:33:49.010Z,69.00
2019-02-26T23:35:54.902Z,69.40
2019-02-26T23:37:56.971Z,69.50
2019-02-26T23:40:01.366Z,69.30
2019-02-26T23:42:06.586Z,69.50
2019-02-26T23:44:17.745Z,69.90
2019-02-26T23:46:24.142Z,70.10
2019-02-26T23:48:28.674Z,70.10
2019-02-26T23:50:33.039Z,70.30
2019-02-26T23:52:37.538Z,71.00
2019-02-26T23:54:41.911Z,71.10
2019-02-26T23:56:46.250Z,70.80
2019-02-26T23:58:50.606Z,70.40
